Time;durP1;ratioP1;P1;durP2;ratioP2;P2;SDS_P1;SDS_P2;PMS_P1;PMS_P2;Temp;Humidity;BMP_temperature;BMP_pressure;BME280_temperature;BME280_humidity;BME280_pressure;Samples;Min_cycle;Max_cycle;Signal;HPM_P1;HPM_P2
2024/01/07 00:01:52;;;;;;;170.35;165.27;;;;;;;;;;5093330;28;20105;-67
2024/01/07 00:04:19;;;;;;;155.98;151.23;;;;;;;;;;5093270;28;20036;-67
2024/01/07 00:06:45;;;;;;;175.10;169.77;;;;;;;;;;5093372;28;20097;-67
2024/01/07 00:09:13;;;;;;;161.25;156.25;;;;;;;;;;5093222;28;20547;-67
2024/01/07 00:11:40;;;;;;;161.07;156.10;;;;;;;;;;5091989;28;20036;-68
2024/01/07 00:14:06;;;;;;;173.73;168.60;;;;;;;;;;5090866;28;20098;-69
2024/01/07 00:16:33;;;;;;;155.57;150.88;;;;;;;;;;5090524;28;20044;-68
2024/01/07 00:19:00;;;;;;;160.18;155.32;;;;;;;;;;5093589;28;20051;-67
2024/01/07 00:21:26;;;;;;;180.45;175.15;;;;;;;;;;5092396;28;20040;-66
2024/01/07 00:23:53;;;;;;;179.10;173.80;;;;;;;;;;5092875;28;20101;-66
2024/01/07 00:26:21;;;;;;;155.73;151.02;;;;;;;;;;5093061;28;20067;-66
2024/01/07 00:28:47;;;;;;;160.05;155.23;;;;;;;;;;5092835;28;20495;-66
2024/01/07 00:31:14;;;;;;;155.25;150.60;;;;;;;;;;5090872;28;20044;-67
2024/01/07 00:33:40;;;;;;;157.90;152.93;;;;;;;;;;5093144;28;20498;-67
2024/01/07 00:36:07;;;;;;;108.45;104.95;;;;;;;;;;5092910;28;20449;-67
2024/01/07 00:38:33;;;;;;;105.53;102.10;;;;;;;;;;5092536;28;20456;-66
2024/01/07 00:41:00;;;;;;;158.00;153.20;;;;;;;;;;5092895;28;20040;-66
2024/01/07 00:43:28;;;;;;;179.18;173.95;;;;;;;;;;5092768;28;20105;-68
2024/01/07 00:45:54;;;;;;;172.63;167.48;;;;;;;;;;5092491;28;20487;-67
2024/01/07 00:48:20;;;;;;;162.23;157.27;;;;;;;;;;5088514;28;20051;-67
2024/01/07 00:50:47;;;;;;;168.50;163.35;;;;;;;;;;5092122;28;20064;-68
2024/01/07 00:53:13;;;;;;;164.07;158.88;;;;;;;;;;5112333;28;20077;-67
2024/01/07 00:55:40;;;;;;;162.23;157.00;;;;;;;;;;5113314;28;20558;-67
2024/01/07 00:58:06;;;;;;;;;;;;;;;;;;5113615;28;20059;-68
2024/01/07 01:00:34;;;;;;;151.63;146.98;;;;;;;;;;5113184;28;19919;-66
2024/01/07 01:03:00;;;;;;;151.23;146.60;;;;;;;;;;5113182;28;20051;-67
2024/01/07 01:05:27;;;;;;;102.53;98.97;;;;;;;;;;5095153;28;20449;-69
2024/01/07 01:07:53;;;;;;;162.30;157.40;;;;;;;;;;5092910;28;20044;-68
2024/01/07 01:10:20;;;;;;;230.03;223.37;;;;;;;;;;5091424;28;20425;-67
2024/01/07 01:12:46;;;;;;;170.60;165.43;;;;;;;;;;5092692;28;20056;-68
2024/01/07 01:15:16;;;;;;;163.77;158.68;;;;;;;;;;5092484;28;20468;-68
2024/01/07 01:17:44;;;;;;;158.82;153.70;;;;;;;;;;5093581;28;20052;-67
2024/01/07 01:20:11;;;;;;;157.32;152.30;;;;;;;;;;5091509;28;20052;-67
2024/01/07 01:22:37;;;;;;;111.78;108.05;;;;;;;;;;5092446;28;20441;-68
2024/01/07 01:25:04;;;;;;;173.38;168.05;;;;;;;;;;5092502;28;20101;-67
2024/01/07 01:27:31;;;;;;;173.68;168.48;;;;;;;;;;5105817;28;20048;-67
2024/01/07 01:29:57;;;;;;;160.27;155.43;;;;;;;;;;5112637;28;20048;-68
2024/01/07 01:32:23;;;;;;;160.30;155.18;;;;;;;;;;5112372;28;20100;-68
2024/01/07 01:34:51;;;;;;;149.45;144.73;;;;;;;;;;5112598;28;20096;-67
2024/01/07 01:37:18;;;;;;;147.23;142.57;;;;;;;;;;5104490;28;20044;-67
2024/01/07 01:39:44;;;;;;;162.18;157.13;;;;;;;;;;5092089;28;20097;-67
2024/01/07 01:42:11;;;;;;;157.25;152.30;;;;;;;;;;5091405;28;20101;-67
2024/01/07 01:44:37;;;;;;;153.68;148.82;;;;;;;;;;5091772;28;20490;-67
2024/01/07 01:47:04;;;;;;;159.27;154.18;;;;;;;;;;5092217;28;20052;-68
2024/01/07 01:49:30;;;;;;;144.40;139.85;;;;;;;;;;5091967;28;20048;-67
2024/01/07 01:51:58;;;;;;;166.60;161.65;;;;;;;;;;5090538;28;20047;-67
2024/01/07 01:54:25;;;;;;;150.07;145.48;;;;;;;;;;5071702;28;20102;-68
2024/01/07 01:56:52;;;;;;;147.63;142.85;;;;;;;;;;5071540;28;20056;-67
2024/01/07 01:59:19;;;;;;;155.15;150.07;;;;;;;;;;5071785;28;20564;-68
2024/01/07 02:01:46;;;;;;;158.35;153.35;;;;;;;;;;5082696;28;20044;-67
2024/01/07 02:04:15;;;;;;;156.07;151.35;;;;;;;;;;5091805;28;20059;-68
2024/01/07 02:06:41;;;;;;;155.60;150.95;;;;;;;;;;5091778;28;20498;-69
2024/01/07 02:09:09;;;;;;;165.55;160.35;;;;;;;;;;5090662;28;20040;-69
2024/01/07 02:11:36;;;;;;;165.90;160.85;;;;;;;;;;5091697;28;20563;-70
2024/01/07 02:14:02;;;;;;;146.43;141.95;;;;;;;;;;5091817;28;20052;-70
2024/01/07 02:16:29;;;;;;;150.75;145.98;;;;;;;;;;5091680;28;20490;-71
2024/01/07 02:18:55;;;;;;;151.93;147.38;;;;;;;;;;5097227;28;20048;-69
2024/01/07 02:21:22;;;;;;;147.40;142.35;;;;;;;;;;5112004;28;20040;-69
2024/01/07 02:23:48;;;;;;;132.95;128.85;;;;;;;;;;5093592;28;20105;-71
2024/01/07 02:26:16;;;;;;;89.78;86.85;;;;;;;;;;5090499;28;20464;-73
2024/01/07 02:28:42;;;;;;;136.98;132.75;;;;;;;;;;5091635;28;20048;-70
2024/01/07 02:31:09;;;;;;;138.85;134.45;;;;;;;;;;5091586;28;20044;-70
2024/01/07 02:33:35;;;;;;;133.18;129.00;;;;;;;;;;5091458;28;20090;-70
2024/01/07 02:36:02;;;;;;;136.32;132.15;;;;;;;;;;5095143;28;20040;-69
2024/01/07 02:38:28;;;;;;;;;;;;;;;;;;5112240;28;20048;-70
2024/01/07 02:40:55;;;;;;;124.10;120.20;;;;;;;;;;5111905;28;19928;-69
2024/01/07 02:43:22;;;;;;;128.48;124.47;;;;;;;;;;5091651;28;20052;-68
2024/01/07 02:45:49;;;;;;;132.95;128.88;;;;;;;;;;5091538;28;20048;-68
2024/01/07 02:48:15;;;;;;;127.90;123.75;;;;;;;;;;5091401;28;20495;-70
2024/01/07 02:50:42;;;;;;;138.10;133.85;;;;;;;;;;5091554;28;20093;-69
2024/01/07 02:53:10;;;;;;;130.00;125.95;;;;;;;;;;5092669;28;20065;-71
2024/01/07 02:55:37;;;;;;;140.18;135.88;;;;;;;;;;5094792;28;20059;-68
2024/01/07 02:58:03;;;;;;;126.43;122.53;;;;;;;;;;5094006;28;20097;-68
2024/01/07 03:00:31;;;;;;;134.77;130.68;;;;;;;;;;5099018;28;20051;-71
2024/01/07 03:02:58;;;;;;;133.80;129.68;;;;;;;;;;5115766;28;20044;-70
2024/01/07 03:05:24;;;;;;;136.25;132.05;;;;;;;;;;5115633;28;20048;-70
2024/01/07 03:07:50;;;;;;;148.75;144.15;;;;;;;;;;5115482;28;20610;-69
2024/01/07 03:10:17;;;;;;;91.60;88.57;;;;;;;;;;5114159;28;20456;-69
2024/01/07 03:12:44;;;;;;;126.72;122.75;;;;;;;;;;5115214;28;20092;-68
2024/01/07 03:15:10;;;;;;;134.30;129.70;;;;;;;;;;5115364;28;20054;-68
2024/01/07 03:17:38;;;;;;;130.95;126.85;;;;;;;;;;5098268;28;20048;-70
2024/01/07 03:20:05;;;;;;;138.10;133.75;;;;;;;;;;5094958;28;20064;-70
2024/01/07 03:22:31;;;;;;;145.45;141.05;;;;;;;;;;5094759;28;20060;-69
2024/01/07 03:24:58;;;;;;;122.57;118.72;;;;;;;;;;5094781;28;20048;-69
2024/01/07 03:27:24;;;;;;;80.25;77.60;;;;;;;;;;5094859;28;20449;-70
2024/01/07 03:29:51;;;;;;;107.35;103.93;;;;;;;;;;5101870;28;20096;-69
2024/01/07 03:32:18;;;;;;;114.45;110.82;;;;;;;;;;5100700;28;20127;-69
2024/01/07 03:34:46;;;;;;;120.05;116.22;;;;;;;;;;5093209;28;20084;-68
2024/01/07 03:37:12;;;;;;;110.45;106.93;;;;;;;;;;5094689;28;20101;-67
2024/01/07 03:39:39;;;;;;;123.30;119.35;;;;;;;;;;5094319;28;20048;-67
2024/01/07 03:42:11;;;;;;;120.80;116.97;;;;;;;;;;5094615;28;20043;-68
2024/01/07 03:44:37;;;;;;;111.60;108.05;;;;;;;;;;5099732;28;20387;-67
2024/01/07 03:47:04;;;;;;;126.43;122.50;;;;;;;;;;5114842;28;20043;-69
2024/01/07 03:49:30;;;;;;;123.20;119.32;;;;;;;;;;5100551;28;20044;-69
2024/01/07 03:51:58;;;;;;;122.93;119.05;;;;;;;;;;5093102;28;20494;-69
2024/01/07 03:54:24;;;;;;;133.60;129.45;;;;;;;;;;5094218;28;20498;-69
2024/01/07 03:56:51;;;;;;;68.47;66.18;;;;;;;;;;5093826;28;20464;-67
2024/01/07 03:59:18;;;;;;;128.27;124.28;;;;;;;;;;5095112;28;20048;-67
2024/01/07 04:01:44;;;;;;;123.90;120.03;;;;;;;;;;5114345;28;20058;-67
2024/01/07 04:04:10;;;;;;;128.13;123.97;;;;;;;;;;5114535;28;20097;-67
2024/01/07 04:06:37;;;;;;;121.28;117.43;;;;;;;;;;5107495;28;20039;-67
2024/01/07 04:09:05;;;;;;;108.28;104.80;;;;;;;;;;5093940;28;20070;-68
2024/01/07 04:11:31;;;;;;;105.70;102.28;;;;;;;;;;5093762;28;20048;-68
2024/01/07 04:13:58;;;;;;;113.25;109.68;;;;;;;;;;5093869;28;20571;-68
2024/01/07 04:16:24;;;;;;;113.22;109.63;;;;;;;;;;5093824;28;20056;-69
2024/01/07 04:18:51;;;;;;;117.75;114.03;;;;;;;;;;5112415;28;20101;-68
2024/01/07 04:21:17;;;;;;;116.57;112.85;;;;;;;;;;5114113;28;20508;-68
2024/01/07 04:23:44;;;;;;;117.07;113.30;;;;;;;;;;5099392;28;20090;-69
2024/01/07 04:26:12;;;;;;;111.70;108.13;;;;;;;;;;5110541;28;20505;-68
2024/01/07 04:28:41;;;;;;;112.78;109.15;;;;;;;;;;5111910;28;20043;-68
2024/01/07 04:31:08;;;;;;;113.65;110.07;;;;;;;;;;5101483;28;20096;-68
2024/01/07 04:33:34;;;;;;;99.13;95.93;;;;;;;;;;5113592;28;20456;-69
2024/01/07 04:36:01;;;;;;;115.90;112.20;;;;;;;;;;5112157;28;20128;-67
2024/01/07 04:38:28;;;;;;;112.47;108.82;;;;;;;;;;5114006;28;20047;-71
2024/01/07 04:40:54;;;;;;;111.10;107.57;;;;;;;;;;5113617;27;20063;-67
2024/01/07 04:43:22;;;;;;;117.25;113.57;;;;;;;;;;5113625;28;20044;-67
2024/01/07 04:45:48;;;;;;;104.55;101.20;;;;;;;;;;5101406;28;20069;-67
2024/01/07 04:48:15;;;;;;;100.28;97.05;;;;;;;;;;5093162;28;20052;-69
2024/01/07 04:50:42;;;;;;;106.20;102.78;;;;;;;;;;5092995;28;20048;-67
2024/01/07 04:53:08;;;;;;;98.50;95.30;;;;;;;;;;5105431;28;20043;-68
2024/01/07 04:55:35;;;;;;;113.22;109.65;;;;;;;;;;5113355;28;20047;-70
2024/01/07 04:58:01;;;;;;;119.43;115.68;;;;;;;;;;5113174;28;20083;-66
2024/01/07 05:00:29;;;;;;;122.05;118.20;;;;;;;;;;5109966;28;20040;-67
2024/01/07 05:02:56;;;;;;;71.07;68.70;;;;;;;;;;5091540;28;20482;-67
2024/01/07 05:05:22;;;;;;;116.57;112.85;;;;;;;;;;5092836;28;20076;-66
2024/01/07 05:07:49;;;;;;;115.43;111.70;;;;;;;;;;5092793;28;20048;-68
2024/01/07 05:10:15;;;;;;;117.25;113.57;;;;;;;;;;5093755;28;20055;-67
2024/01/07 05:12:42;;;;;;;114.40;110.75;;;;;;;;;;5092736;28;20139;-67
2024/01/07 05:15:09;;;;;;;102.35;99.05;;;;;;;;;;5093078;28;20074;-67
2024/01/07 05:17:37;;;;;;;136.80;132.68;;;;;;;;;;5112623;28;20047;-67
2024/01/07 05:20:04;;;;;;;114.50;110.93;;;;;;;;;;5105171;28;20129;-67
2024/01/07 05:22:31;;;;;;;130.75;126.70;;;;;;;;;;5092555;28;20075;-66
2024/01/07 05:24:58;;;;;;;103.95;100.65;;;;;;;;;;5092619;28;20109;-67
2024/01/07 05:27:24;;;;;;;104.93;101.57;;;;;;;;;;5097109;28;20050;-69
2024/01/07 05:29:51;;;;;;;114.10;110.40;;;;;;;;;;5112611;28;20048;-67
2024/01/07 05:32:18;;;;;;;126.18;122.05;;;;;;;;;;5092317;28;20048;-67
2024/01/07 05:34:45;;;;;;;121.10;117.35;;;;;;;;;;5092155;28;20052;-66
2024/01/07 05:37:12;;;;;;;98.35;95.15;;;;;;;;;;5092414;28;20052;-66
2024/01/07 05:39:38;;;;;;;115.60;111.93;;;;;;;;;;5092178;28;20056;-68
2024/01/07 05:42:05;;;;;;;106.93;103.50;;;;;;;;;;5092421;28;20048;-68
2024/01/07 05:44:31;;;;;;;117.63;113.90;;;;;;;;;;5093156;28;20040;-68
2024/01/07 05:46:58;;;;;;;120.82;117.03;;;;;;;;;;5092139;28;20052;-67
2024/01/07 05:49:25;;;;;;;115.70;112.05;;;;;;;;;;5090970;28;20052;-68
2024/01/07 05:51:52;;;;;;;107.72;104.30;;;;;;;;;;5090700;28;20050;-67
2024/01/07 05:54:19;;;;;;;105.88;102.50;;;;;;;;;;5091910;28;20498;-67
2024/01/07 05:56:45;;;;;;;108.68;105.20;;;;;;;;;;5091631;28;20130;-67
2024/01/07 05:59:12;;;;;;;114.57;110.93;;;;;;;;;;5092039;28;20048;-67
2024/01/07 06:01:39;;;;;;;111.70;108.05;;;;;;;;;;5092039;28;20056;-67
2024/01/07 06:04:05;;;;;;;116.60;112.90;;;;;;;;;;5111980;28;20100;-67
2024/01/07 06:06:33;;;;;;;104.35;100.97;;;;;;;;;;5112214;28;20572;-67
2024/01/07 06:09:01;;;;;;;115.18;111.50;;;;;;;;;;5102232;28;20083;-68
2024/01/07 06:11:28;;;;;;;117.28;113.60;;;;;;;;;;5091862;28;20066;-68
2024/01/07 06:13:54;;;;;;;109.75;106.25;;;;;;;;;;5091794;28;20052;-69
2024/01/07 06:16:21;;;;;;;121.88;118.10;;;;;;;;;;5091864;28;20052;-67
2024/01/07 06:18:47;;;;;;;101.50;98.13;;;;;;;;;;5091635;28;20048;-66
2024/01/07 06:21:14;;;;;;;108.22;104.38;;;;;;;;;;5091687;28;20101;-66
2024/01/07 06:23:40;;;;;;;119.93;116.18;;;;;;;;;;5093886;28;20056;-67
2024/01/07 06:26:09;;;;;;;113.80;110.15;;;;;;;;;;5111952;28;20096;-66
2024/01/07 06:28:35;;;;;;;121.93;118.10;;;;;;;;;;5093742;28;20059;-66
2024/01/07 06:31:03;;;;;;;69.28;66.88;;;;;;;;;;5114282;28;20448;-66
2024/01/07 06:33:30;;;;;;;111.65;108.10;;;;;;;;;;5116093;28;20055;-66
2024/01/07 06:35:56;;;;;;;98.60;95.40;;;;;;;;;;5097248;28;20052;-65
2024/01/07 06:38:23;;;;;;;117.63;113.88;;;;;;;;;;5095520;28;20114;-66
2024/01/07 06:40:50;;;;;;;112.75;109.20;;;;;;;;;;5106224;28;20048;-67
2024/01/07 06:43:18;;;;;;;111.75;108.20;;;;;;;;;;5085876;28;20089;-66
2024/01/07 06:45:45;;;;;;;112.18;108.60;;;;;;;;;;5089065;28;20503;-67
2024/01/07 06:48:11;;;;;;;111.95;108.40;;;;;;;;;;5090273;28;20052;-66
2024/01/07 06:50:37;;;;;;;103.50;100.18;;;;;;;;;;5083876;28;20060;-66
2024/01/07 06:53:04;;;;;;;115.90;112.22;;;;;;;;;;5091694;28;20048;-66
2024/01/07 06:55:31;;;;;;;121.00;117.18;;;;;;;;;;5086015;28;20101;-67
2024/01/07 06:57:57;;;;;;;111.72;108.15;;;;;;;;;;5098224;28;20563;-66
2024/01/07 07:00:25;;;;;;;117.13;113.40;;;;;;;;;;5103850;28;20051;-66
2024/01/07 07:02:51;;;;;;;118.20;114.38;;;;;;;;;;5096091;28;20048;-68
2024/01/07 07:05:18;;;;;;;112.10;108.53;;;;;;;;;;5090933;28;20121;-67
2024/01/07 07:07:45;;;;;;;112.80;109.20;;;;;;;;;;5086784;28;20048;-67
2024/01/07 07:10:11;;;;;;;;;;;;;;;;;;5083550;28;20098;-67
2024/01/07 07:12:38;;;;;;;105.32;101.95;;;;;;;;;;5094400;28;19920;-67
2024/01/07 07:15:04;;;;;;;117.75;114.10;;;;;;;;;;5083459;28;20152;-67
2024/01/07 07:17:32;;;;;;;108.45;105.00;;;;;;;;;;5092959;28;20040;-66
2024/01/07 07:19:59;;;;;;;123.72;119.82;;;;;;;;;;5099819;28;20056;-66
2024/01/07 07:22:25;;;;;;;113.68;110.07;;;;;;;;;;5091351;28;20048;-66
2024/01/07 07:24:52;;;;;;;111.75;108.07;;;;;;;;;;5091147;28;20048;-66
2024/01/07 07:27:18;;;;;;;122.53;118.50;;;;;;;;;;5094372;28;20048;-67
2024/01/07 07:29:45;;;;;;;77.65;75.05;;;;;;;;;;5092765;28;20460;-67
2024/01/07 07:32:11;;;;;;;112.40;108.85;;;;;;;;;;5094257;28;20048;-67
2024/01/07 07:34:39;;;;;;;113.95;110.30;;;;;;;;;;5094259;28;20090;-65
2024/01/07 07:37:05;;;;;;;;;;;;;;;;;;5079025;28;20044;-69
2024/01/07 07:39:32;;;;;;;108.18;104.65;;;;;;;;;;5080560;28;19919;-65
2024/01/07 07:41:58;;;;;;;115.65;111.93;;;;;;;;;;5093998;28;20494;-65
2024/01/07 07:44:24;;;;;;;;;;;;;;;;;;5094567;28;20083;-66
2024/01/07 07:46:51;;;;;;;;;;;;;;;;;;5092375;28;19923;-66
2024/01/07 07:49:17;;;;;;;;;;;;;;;;;;5094280;28;19926;-66
2024/01/07 07:51:43;;;;;;;;;;;;;;;;;;5089964;28;19950;-66
2024/01/07 07:54:10;;;;;;;;;;;;;;;;;;5090287;28;19923;-67
2024/01/07 07:56:37;;;;;;;112.07;108.53;;;;;;;;;;5093056;28;19965;-66
2024/01/07 07:59:04;;;;;;;118.07;114.25;;;;;;;;;;5093252;28;20148;-67
2024/01/07 08:01:31;;;;;;;129.70;125.65;;;;;;;;;;5093051;28;20048;-65
2024/01/07 08:03:57;;;;;;;123.32;119.40;;;;;;;;;;5084895;28;20456;-65
2024/01/07 08:06:24;;;;;;;117.18;113.50;;;;;;;;;;5093589;28;20098;-65
2024/01/07 08:08:50;;;;;;;113.55;109.78;;;;;;;;;;5093399;28;20101;-66
2024/01/07 08:11:18;;;;;;;89.38;86.13;;;;;;;;;;5092511;28;20490;-66
2024/01/07 08:13:45;;;;;;;123.38;119.38;;;;;;;;;;5093433;28;20043;-66
2024/01/07 08:16:12;;;;;;;135.77;131.38;;;;;;;;;;5087197;28;20548;-66
2024/01/07 08:18:38;;;;;;;129.70;125.43;;;;;;;;;;5093176;28;20044;-66
2024/01/07 08:21:05;;;;;;;129.55;125.45;;;;;;;;;;5092770;28;20048;-66
2024/01/07 08:23:32;;;;;;;126.53;122.40;;;;;;;;;;5093160;28;20097;-66
2024/01/07 08:25:59;;;;;;;137.18;132.90;;;;;;;;;;5082847;28;20048;-66
2024/01/07 08:28:25;;;;;;;134.50;130.38;;;;;;;;;;5082704;28;20044;-65
2024/01/07 08:30:53;;;;;;;123.47;119.28;;;;;;;;;;5090206;28;20036;-65
2024/01/07 08:33:20;;;;;;;129.23;125.22;;;;;;;;;;5088217;28;20135;-66
2024/01/07 08:35:46;;;;;;;136.20;132.02;;;;;;;;;;5082957;28;20098;-65
2024/01/07 08:38:13;;;;;;;121.88;117.97;;;;;;;;;;5087217;28;20043;-65
2024/01/07 08:40:40;;;;;;;136.02;131.85;;;;;;;;;;5092101;28;20127;-66
2024/01/07 08:43:07;;;;;;;145.13;140.40;;;;;;;;;;5092817;28;20093;-65
2024/01/07 08:45:33;;;;;;;134.63;130.38;;;;;;;;;;5079753;28;20081;-65
2024/01/07 08:48:01;;;;;;;124.15;120.10;;;;;;;;;;5083298;28;20056;-65
2024/01/07 08:50:28;;;;;;;121.95;117.97;;;;;;;;;;5092833;28;20046;-67
2024/01/07 08:52:54;;;;;;;136.90;132.73;;;;;;;;;;5092068;28;20052;-66
2024/01/07 08:55:21;;;;;;;136.18;131.82;;;;;;;;;;5091149;28;20067;-64
2024/01/07 08:57:48;;;;;;;135.45;131.30;;;;;;;;;;5079656;28;20126;-65
2024/01/07 09:00:16;;;;;;;100.75;97.45;;;;;;;;;;5083822;28;20715;-65
2024/01/07 09:02:42;;;;;;;140.30;135.73;;;;;;;;;;5088247;28;20044;-65
2024/01/07 09:05:10;;;;;;;138.73;134.40;;;;;;;;;;5092544;28;20043;-66
2024/01/07 09:07:37;;;;;;;142.07;137.70;;;;;;;;;;5092005;28;20054;-66
2024/01/07 09:10:08;;;;;;;148.23;143.55;;;;;;;;;;5081698;28;20052;-66
2024/01/07 09:12:35;;;;;;;139.98;135.68;;;;;;;;;;5087592;28;20104;-68
2024/01/07 09:15:01;;;;;;;136.45;132.25;;;;;;;;;;5098266;28;20071;-66
2024/01/07 09:17:28;;;;;;;97.32;94.18;;;;;;;;;;5112585;28;20451;-66
2024/01/07 09:19:55;;;;;;;135.05;130.80;;;;;;;;;;5096171;28;20040;-65
2024/01/07 09:22:23;;;;;;;126.10;122.00;;;;;;;;;;5091874;28;20052;-66
2024/01/07 09:24:49;;;;;;;127.60;123.57;;;;;;;;;;5092076;28;20051;-66
2024/01/07 09:27:15;;;;;;;136.75;132.48;;;;;;;;;;5092390;28;20102;-66
2024/01/07 09:29:42;;;;;;;126.25;122.10;;;;;;;;;;5091989;28;20040;-66
2024/01/07 09:32:09;;;;;;;128.63;124.63;;;;;;;;;;5085348;28;20376;-66
2024/01/07 09:34:35;;;;;;;146.23;141.77;;;;;;;;;;5085873;28;20117;-66
2024/01/07 09:37:02;;;;;;;145.27;140.88;;;;;;;;;;5089870;28;20066;-66
2024/01/07 09:39:30;;;;;;;131.70;127.28;;;;;;;;;;5091062;28;20047;-66
2024/01/07 09:41:56;;;;;;;137.93;133.68;;;;;;;;;;5090343;28;20549;-65
2024/01/07 09:44:23;;;;;;;98.38;95.00;;;;;;;;;;5090809;28;20480;-66
2024/01/07 09:46:51;;;;;;;138.38;134.02;;;;;;;;;;5090942;28;20052;-66
2024/01/07 09:49:18;;;;;;;148.57;144.07;;;;;;;;;;5090555;28;20140;-66
2024/01/07 09:51:46;;;;;;;126.88;122.85;;;;;;;;;;5089306;28;20055;-66
2024/01/07 09:54:14;;;;;;;134.25;129.82;;;;;;;;;;5090540;28;20048;-66
2024/01/07 09:56:44;;;;;;;130.73;126.65;;;;;;;;;;5088508;28;20051;-66
2024/01/07 09:59:10;;;;;;;123.00;119.15;;;;;;;;;;5091129;28;20051;-65
2024/01/07 10:01:37;;;;;;;134.15;130.00;;;;;;;;;;5090934;28;20044;-65
2024/01/07 10:04:03;;;;;;;130.63;126.50;;;;;;;;;;5088095;28;20044;-65
2024/01/07 10:06:30;;;;;;;136.93;132.65;;;;;;;;;;5091529;28;20048;-65
2024/01/07 10:08:56;;;;;;;135.57;131.38;;;;;;;;;;5091322;28;20101;-65
2024/01/07 10:11:23;;;;;;;148.45;143.95;;;;;;;;;;5091427;28;20486;-65
2024/01/07 10:13:52;;;;;;;141.52;137.18;;;;;;;;;;5091062;28;20458;-66
2024/01/07 10:16:18;;;;;;;135.38;130.68;;;;;;;;;;5091198;28;20641;-65
2024/01/07 10:18:45;;;;;;;142.20;137.88;;;;;;;;;;5090966;28;20056;-66
2024/01/07 10:21:11;;;;;;;163.07;158.05;;;;;;;;;;5091339;28;20044;-65
2024/01/07 10:23:38;;;;;;;134.85;130.68;;;;;;;;;;5090843;28;20059;-65
2024/01/07 10:26:05;;;;;;;110.85;107.30;;;;;;;;;;5074698;28;20549;-66
2024/01/07 10:28:32;;;;;;;152.40;147.75;;;;;;;;;;5091034;28;20048;-67
2024/01/07 10:31:01;;;;;;;158.80;153.82;;;;;;;;;;5090967;28;20054;-67
2024/01/07 10:33:31;;;;;;;159.30;154.52;;;;;;;;;;5090994;28;20048;-69
2024/01/07 10:35:57;;;;;;;;;;;;;;;;;;5091912;28;20052;-67
2024/01/07 10:38:24;;;;;;;141.85;137.43;;;;;;;;;;5091108;28;19981;-68
2024/01/07 10:40:51;;;;;;;162.25;157.38;;;;;;;;;;5090744;28;20101;-68
2024/01/07 10:43:17;;;;;;;163.57;158.70;;;;;;;;;;5094507;28;20092;-68
2024/01/07 10:45:48;;;;;;;153.52;148.90;;;;;;;;;;5090456;28;20525;-68
2024/01/07 10:48:18;;;;;;;163.43;158.35;;;;;;;;;;5081674;28;20097;-69
2024/01/07 10:50:45;;;;;;;173.95;168.88;;;;;;;;;;5083760;28;20513;-69
2024/01/07 10:53:14;;;;;;;168.50;163.55;;;;;;;;;;5085264;28;20545;-69
2024/01/07 10:55:45;;;;;;;181.80;176.48;;;;;;;;;;5089104;28;20048;-68
2024/01/07 10:58:12;;;;;;;106.13;102.72;;;;;;;;;;5090709;28;20506;-68
2024/01/07 11:00:39;;;;;;;147.07;142.60;;;;;;;;;;5081265;28;20101;-68
2024/01/07 11:03:05;;;;;;;;;;;;;;;;;;5100812;28;20097;-68
2024/01/07 11:05:38;;;;;;;160.65;155.68;;;;;;;;;;5079956;28;19924;-68
2024/01/07 11:08:06;;;;;;;146.68;142.07;;;;;;;;;;5087216;28;20503;-68
2024/01/07 11:10:35;;;;;;;160.90;156.05;;;;;;;;;;5076865;28;20040;-68
2024/01/07 11:13:02;;;;;;;155.63;150.07;;;;;;;;;;5079682;28;20102;-67
2024/01/07 11:15:47;;;;;;;142.65;138.25;;;;;;;;;;5091670;28;20048;-68
2024/01/07 11:18:13;;;;;;;;;;;;;;;;;;5092812;28;20039;-69
2024/01/07 11:20:41;;;;;;;164.48;159.48;;;;;;;;;;5094694;28;19978;-68
2024/01/07 11:23:25;;;;;;;177.38;172.18;;;;;;;;;;5088716;28;20048;-69
2024/01/07 11:25:52;;;;;;;174.13;168.63;;;;;;;;;;5072804;28;20052;-68
2024/01/07 11:28:18;;;;;;;174.65;169.55;;;;;;;;;;5089803;28;20052;-69
2024/01/07 11:30:49;;;;;;;184.27;179.00;;;;;;;;;;5091789;28;20044;-68
2024/01/07 11:33:15;;;;;;;;;;;;;;;;;;5093824;28;20044;-68
2024/01/07 11:36:02;;;;;;;159.23;154.25;;;;;;;;;;5093078;28;19926;-68
2024/01/07 11:38:28;;;;;;;;;;;;;;;;;;5080486;28;20071;-69
2024/01/07 11:40:55;;;;;;;146.52;142.05;;;;;;;;;;5095701;28;19924;-69
2024/01/07 11:43:22;;;;;;;170.48;165.45;;;;;;;;;;5094480;28;20056;-68
2024/01/07 11:45:50;;;;;;;165.18;160.13;;;;;;;;;;5100724;28;20097;-68
2024/01/07 11:48:16;;;;;;;110.03;106.47;;;;;;;;;;5083349;28;20048;-69
2024/01/07 11:50:43;;;;;;;176.05;170.88;;;;;;;;;;5086474;28;20041;-69
2024/01/07 11:53:12;;;;;;;179.75;174.52;;;;;;;;;;5105431;28;20324;-69
2024/01/07 11:55:38;;;;;;;154.80;150.10;;;;;;;;;;5091954;28;20048;-69
2024/01/07 11:58:05;;;;;;;146.95;142.48;;;;;;;;;;5079958;28;20048;-68
2024/01/07 12:00:32;;;;;;;152.05;147.35;;;;;;;;;;5093681;28;20044;-68
2024/01/07 12:02:58;;;;;;;156.88;152.13;;;;;;;;;;5087922;28;20048;-68
2024/01/07 12:05:25;;;;;;;163.95;158.98;;;;;;;;;;5087911;28;20392;-69
2024/01/07 12:07:51;;;;;;;165.95;161.02;;;;;;;;;;5091079;28;20052;-69
2024/01/07 12:10:19;;;;;;;177.60;172.43;;;;;;;;;;5089512;28;20082;-68
2024/01/07 12:12:46;;;;;;;158.65;153.95;;;;;;;;;;5089010;28;20048;-69
2024/01/07 12:15:13;;;;;;;167.02;162.02;;;;;;;;;;5092955;28;20052;-68
2024/01/07 12:17:39;;;;;;;;;;;;;;;;;;5093774;28;20129;-68
2024/01/07 12:20:07;;;;;;;147.02;142.60;;;;;;;;;;5077826;28;19977;-69
2024/01/07 12:22:33;;;;;;;;;;;;;;;;;;5110634;28;20040;-69
2024/01/07 12:25:03;;;;;;;153.55;148.93;;;;;;;;;;5093547;28;19924;-68
2024/01/07 12:27:31;;;;;;;162.80;157.95;;;;;;;;;;5092518;28;20131;-69
2024/01/07 12:29:58;;;;;;;149.70;145.05;;;;;;;;;;5093211;28;20486;-68
2024/01/07 12:32:27;;;;;;;168.68;163.73;;;;;;;;;;5092838;28;20052;-68
2024/01/07 12:34:53;;;;;;;153.50;148.80;;;;;;;;;;5094613;28;20101;-68
2024/01/07 12:37:20;;;;;;;156.15;151.40;;;;;;;;;;5092459;28;20106;-69
2024/01/07 12:39:46;;;;;;;170.07;165.05;;;;;;;;;;5089500;28;20136;-68
2024/01/07 12:42:13;;;;;;;141.25;136.88;;;;;;;;;;5088903;28;20040;-68
2024/01/07 12:44:39;;;;;;;;;;;;;;;;;;5091738;28;20048;-69
2024/01/07 12:47:07;;;;;;;145.00;140.55;;;;;;;;;;5091926;28;19973;-69
2024/01/07 12:49:34;;;;;;;138.77;134.55;;;;;;;;;;5094071;28;20097;-69
2024/01/07 12:52:00;;;;;;;144.68;140.20;;;;;;;;;;5095191;28;20060;-69
2024/01/07 12:54:27;;;;;;;141.57;137.27;;;;;;;;;;5093990;28;20048;-69
2024/01/07 12:56:53;;;;;;;171.38;166.27;;;;;;;;;;5111496;28;20047;-69
2024/01/07 12:59:19;;;;;;;147.85;143.23;;;;;;;;;;5096411;28;20051;-70
2024/01/07 13:01:46;;;;;;;155.18;150.50;;;;;;;;;;5091564;28;20080;-66
2024/01/07 13:04:14;;;;;;;98.85;95.68;;;;;;;;;;5091333;28;20456;-66
2024/01/07 13:06:40;;;;;;;164.77;159.80;;;;;;;;;;5111137;28;20046;-68
2024/01/07 13:09:08;;;;;;;153.30;148.65;;;;;;;;;;5112698;28;20052;-68
2024/01/07 13:11:34;;;;;;;137.65;133.43;;;;;;;;;;5100405;28;20046;-68
2024/01/07 13:14:01;;;;;;;160.57;155.82;;;;;;;;;;5112721;28;20048;-68
2024/01/07 13:16:28;;;;;;;155.52;150.82;;;;;;;;;;5105600;28;20050;-68
2024/01/07 13:18:54;;;;;;;149.02;144.50;;;;;;;;;;5084905;28;20151;-68
2024/01/07 13:21:22;;;;;;;157.25;152.32;;;;;;;;;;5086961;28;20043;-69
2024/01/07 13:23:49;;;;;;;156.73;152.00;;;;;;;;;;5093063;28;20051;-68
2024/01/07 13:26:16;;;;;;;116.97;113.20;;;;;;;;;;5084561;28;20457;-68
2024/01/07 13:28:43;;;;;;;172.98;167.88;;;;;;;;;;5100100;28;20059;-67
2024/01/07 13:31:11;;;;;;;162.80;157.70;;;;;;;;;;5097228;28;20097;-67
2024/01/07 13:33:38;;;;;;;163.20;158.20;;;;;;;;;;5084496;28;20118;-68
2024/01/07 13:36:09;;;;;;;166.02;161.05;;;;;;;;;;5087169;28;20041;-68
2024/01/07 13:38:38;;;;;;;169.05;163.90;;;;;;;;;;5089703;28;20123;-71
2024/01/07 13:41:05;;;;;;;172.48;167.27;;;;;;;;;;5089548;28;20044;-69
2024/01/07 13:43:31;;;;;;;178.50;173.13;;;;;;;;;;5089906;28;20086;-67
2024/01/07 13:45:58;;;;;;;158.57;153.77;;;;;;;;;;5091435;28;20102;-68
2024/01/07 13:48:24;;;;;;;175.80;170.63;;;;;;;;;;5090084;28;20044;-68
2024/01/07 13:50:53;;;;;;;161.43;156.25;;;;;;;;;;5089216;28;20040;-68
2024/01/07 13:53:19;;;;;;;167.90;162.82;;;;;;;;;;5088361;28;20052;-69
2024/01/07 13:55:48;;;;;;;166.02;160.88;;;;;;;;;;5090933;28;20093;-69
2024/01/07 13:58:16;;;;;;;172.77;167.65;;;;;;;;;;5087957;28;20482;-68
2024/01/07 14:00:42;;;;;;;181.25;175.82;;;;;;;;;;5090883;28;20564;-69